Maynard, Ohio
Current Conditions -  °F | °C
As of 3:53 PM on Saturday 20 Dec 2014 (Local Time) from KHLG Reporting Station
Overcast Overcast  
Wind Chill: 25°   Ceiling: 2300
Heat Index: 30°   Visibility: 10mi
Dew Point: 20°   Wind: 5mph
Humidity: 66%   Direction: 280°W
Pressure: 30.23"   Gusts: NA
Location:  40.12°N, 80.88°W
Report Text: KHLG 202053Z 28004KT 10SM OVC023 M01/M07 A3023 RMK AO2 SLP254 T10111067 53000
Loading
Personal Weather Stations






























Interactive Weather Map New forecast layout! Learn more

10-Day Weather Forecast

Advertisements
Track Severe Weather on mobile